createdAt,value
2018-12-13T00:00:44.635Z,31.40
2018-12-13T00:03:12.841Z,25.82
2018-12-13T00:05:41.068Z,28.00
2018-12-13T00:08:09.315Z,26.02
2018-12-13T00:10:41.036Z,28.10
2018-12-13T00:13:09.238Z,27.52
2018-12-13T00:15:37.442Z,25.75
2018-12-13T00:18:18.036Z,29.55
2018-12-13T00:20:49.560Z,28.02
2018-12-13T00:23:17.775Z,27.65
2018-12-13T00:25:46.051Z,29.52
2018-12-13T00:28:14.241Z,29.85
2018-12-13T00:30:45.612Z,28.90
2018-12-13T00:33:13.790Z,22.90
2018-12-13T00:35:42.012Z,26.15
2018-12-13T00:38:10.282Z,24.65
2018-12-13T00:40:41.926Z,27.80
2018-12-13T00:43:13.788Z,25.35
2018-12-13T00:45:42.005Z,25.85
2018-12-13T00:48:10.304Z,25.48
2018-12-13T00:50:42.066Z,25.17
2018-12-13T00:56:14.966Z,28.80
2018-12-13T00:58:43.162Z,27.95
2018-12-13T01:01:14.270Z,26.57
2018-12-13T01:03:42.617Z,24.95
2018-12-13T01:06:10.795Z,27.40
2018-12-13T01:08:39.006Z,25.40
2018-12-13T01:11:10.651Z,23.42
2018-12-13T01:16:23.850Z,23.57
2018-12-13T01:18:52.089Z,22.48
2018-12-13T01:21:35.220Z,21.73
2018-12-13T01:24:03.442Z,21.20
2018-12-13T01:26:31.693Z,26.33
2018-12-13T01:28:59.901Z,22.62
2018-12-13T01:31:41.085Z,23.52
2018-12-13T01:34:09.314Z,25.15
2018-12-13T01:36:37.563Z,29.55
2018-12-13T01:39:06.143Z,24.02
2018-12-13T01:41:47.281Z,25.25
2018-12-13T01:44:15.511Z,24.60
2018-12-13T01:46:43.733Z,23.27
2018-12-13T01:49:24.481Z,26.60
2018-12-13T01:52:09.706Z,24.35
2018-12-13T01:54:37.933Z,26.00
2018-12-13T01:57:06.171Z,25.82
2018-12-13T01:59:34.394Z,26.62
2018-12-13T02:02:05.937Z,25.17
2018-12-13T02:04:34.175Z,28.05
2018-12-13T02:07:02.459Z,25.85
2018-12-13T02:09:30.691Z,26.73
2018-12-13T02:12:13.786Z,25.27
2018-12-13T02:14:42.001Z,26.77
2018-12-13T02:17:10.300Z,24.12
2018-12-13T02:19:38.526Z,24.87
2018-12-13T02:22:06.778Z,22.07
2018-12-13T02:24:35.004Z,26.20
2018-12-13T02:27:03.338Z,24.10
2018-12-13T02:29:31.536Z,29.07
2018-12-13T02:32:12.562Z,27.42
2018-12-13T02:34:40.798Z,23.85
2018-12-13T02:37:09.011Z,24.72
2018-12-13T02:39:37.223Z,21.35
2018-12-13T02:42:20.045Z,22.85
2018-12-13T02:44:48.255Z,21.93
2018-12-13T02:47:16.422Z,26.05
2018-12-13T02:49:44.618Z,22.00
2018-12-13T02:52:12.863Z,24.12
2018-12-13T02:54:41.088Z,26.95
2018-12-13T02:57:09.299Z,26.48
2018-12-13T02:59:37.539Z,30.37
2018-12-13T03:02:07.135Z,26.52
2018-12-13T03:04:35.365Z,25.15
2018-12-13T03:07:03.663Z,28.05
2018-12-13T03:09:31.893Z,27.75
2018-12-13T03:12:12.800Z,25.12
2018-12-13T03:14:41.018Z,25.72
2018-12-13T03:17:15.600Z,24.25
2018-12-13T03:19:43.846Z,24.52
2018-12-13T03:22:12.085Z,25.90
2018-12-13T03:24:40.321Z,27.20
2018-12-13T03:27:08.574Z,24.05
2018-12-13T03:29:36.767Z,24.63
2018-12-13T03:32:08.697Z,21.50
2018-12-13T03:34:37.093Z,24.18
2018-12-13T03:37:05.352Z,26.25
2018-12-13T03:39:36.535Z,25.68
2018-12-13T03:42:14.430Z,24.97
2018-12-13T03:44:42.689Z,26.12
2018-12-13T03:47:10.906Z,22.30
2018-12-13T03:49:39.599Z,25.35
2018-12-13T03:52:07.802Z,27.10
2018-12-13T03:54:36.027Z,24.35
2018-12-13T03:57:04.280Z,21.75
2018-12-13T03:59:32.563Z,23.95
2018-12-13T04:05:16.236Z,21.15
2018-12-13T04:07:44.471Z,27.27
2018-12-13T04:10:15.845Z,22.75
2018-12-13T04:12:44.056Z,25.43
2018-12-13T04:15:12.342Z,24.72
2018-12-13T04:17:40.543Z,26.05
2018-12-13T04:20:08.886Z,25.52
2018-12-13T04:22:37.112Z,21.95
2018-12-13T04:25:05.422Z,22.50
2018-12-13T04:27:33.644Z,24.92
2018-12-13T04:30:01.878Z,26.62
2018-12-13T04:32:30.135Z,24.05
2018-12-13T04:34:58.326Z,27.87
2018-12-13T04:37:26.720Z,23.62
2018-12-13T04:39:54.901Z,24.80
2018-12-13T04:42:23.087Z,26.70
2018-12-13T04:44:51.294Z,26.62
2018-12-13T04:47:19.515Z,26.65
2018-12-13T04:49:47.709Z,30.82
2018-12-13T04:52:15.889Z,27.87
2018-12-13T04:54:44.257Z,27.15
2018-12-13T04:57:12.502Z,28.67
2018-12-13T04:59:40.731Z,28.17
2018-12-13T05:02:08.946Z,32.35
2018-12-13T05:04:37.126Z,32.17
2018-12-13T05:07:05.345Z,30.57
2018-12-13T05:09:33.529Z,29.15
2018-12-13T05:12:18.743Z,35.60
2018-12-13T05:14:47.012Z,31.87
2018-12-13T05:17:15.259Z,33.73
2018-12-13T05:19:43.490Z,34.50
2018-12-13T05:22:11.725Z,34.00
2018-12-13T05:24:39.943Z,36.40
2018-12-13T05:27:08.199Z,36.40
2018-12-13T05:29:36.545Z,38.15
2018-12-13T05:32:17.925Z,31.48
2018-12-13T05:34:46.118Z,38.60
2018-12-13T05:37:14.334Z,34.85
2018-12-13T05:39:42.542Z,33.85
2018-12-13T05:42:10.747Z,39.08
2018-12-13T05:44:38.977Z,37.03
2018-12-13T05:47:20.407Z,34.92
2018-12-13T05:49:48.634Z,38.55
2018-12-13T05:52:16.799Z,38.00
2018-12-13T05:54:45.004Z,36.83
2018-12-13T05:57:13.287Z,36.90
2018-12-13T05:59:41.528Z,37.75
2018-12-13T06:02:09.779Z,34.70
2018-12-13T06:07:41.363Z,38.38
2018-12-13T06:10:10.062Z,36.90
2018-12-13T06:12:38.279Z,41.40
2018-12-13T06:15:06.731Z,36.25
2018-12-13T06:17:34.955Z,37.50
2018-12-13T06:20:04.473Z,37.03
2018-12-13T06:25:36.091Z,37.95
2018-12-13T06:28:04.331Z,43.25
2018-12-13T06:30:47.294Z,45.88
2018-12-13T06:33:15.487Z,42.67
2018-12-13T06:35:43.666Z,39.98
2018-12-13T06:38:11.871Z,43.45
2018-12-13T06:40:53.449Z,43.28
2018-12-13T06:43:21.704Z,43.17
2018-12-13T06:45:49.927Z,41.77
2018-12-13T06:48:18.130Z,43.35
2018-12-13T06:50:52.940Z,43.58
2018-12-13T06:53:21.114Z,42.17
2018-12-13T06:55:49.439Z,42.73
2018-12-13T06:58:17.640Z,46.40
2018-12-13T07:00:58.973Z,37.10
2018-12-13T07:03:27.185Z,48.65
2018-12-13T07:05:55.448Z,39.35
2018-12-13T07:08:23.646Z,40.90
2018-12-13T07:11:06.502Z,38.35
2018-12-13T07:13:34.738Z,49.90
2018-12-13T07:16:03.070Z,41.37
2018-12-13T07:18:45.840Z,38.75
2018-12-13T07:21:20.131Z,38.17
2018-12-13T07:23:48.302Z,40.75
2018-12-13T07:26:29.458Z,39.95
2018-12-13T07:28:57.776Z,39.23
2018-12-13T07:31:32.398Z,39.25
2018-12-13T07:34:00.632Z,36.10
2018-12-13T07:36:28.927Z,38.42
2018-12-13T07:38:57.965Z,42.78
2018-12-13T07:41:39.758Z,49.48
2018-12-13T07:44:20.906Z,44.73
2018-12-13T07:46:49.179Z,49.18
2018-12-13T07:49:23.770Z,42.10
2018-12-13T07:51:58.160Z,42.50
2018-12-13T07:54:26.363Z,46.40
2018-12-13T07:56:54.605Z,43.00
2018-12-13T07:59:22.806Z,41.37
2018-12-13T08:01:54.142Z,46.95
2018-12-13T08:07:21.419Z,41.23
2018-12-13T08:09:49.599Z,48.65
2018-12-13T08:12:18.102Z,51.25
2018-12-13T08:14:47.698Z,58.08
2018-12-13T08:17:15.859Z,49.18
2018-12-13T08:19:44.048Z,55.38
2018-12-13T08:22:12.230Z,54.80
2018-12-13T08:24:40.429Z,43.68
2018-12-13T08:27:08.612Z,47.03
2018-12-13T08:29:36.785Z,46.55
2018-12-13T08:32:08.818Z,47.62
2018-12-13T08:34:37.174Z,48.55
2018-12-13T08:37:05.388Z,49.08
2018-12-13T08:39:33.537Z,45.43
2018-12-13T08:42:05.452Z,46.58
2018-12-13T08:44:33.626Z,48.33
2018-12-13T08:47:01.839Z,50.10
2018-12-13T08:49:30.137Z,44.98
2018-12-13T08:52:01.721Z,53.45
2018-12-13T08:54:29.917Z,46.58
2018-12-13T08:56:58.150Z,41.55
2018-12-13T08:59:26.339Z,43.85
2018-12-13T09:01:57.788Z,49.23
2018-12-13T09:04:25.949Z,43.00
2018-12-13T09:06:54.165Z,43.17
2018-12-13T09:09:22.322Z,48.15
2018-12-13T09:11:56.225Z,52.73
2018-12-13T09:14:30.866Z,56.73
2018-12-13T09:16:59.071Z,55.88
2018-12-13T09:19:27.262Z,48.68
2018-12-13T09:21:59.178Z,60.48
2018-12-13T09:24:27.334Z,47.67
2018-12-13T09:26:55.534Z,54.93
2018-12-13T09:29:23.774Z,50.73
2018-12-13T09:31:57.718Z,50.48
2018-12-13T09:34:25.902Z,50.98
2018-12-13T09:36:54.065Z,52.80
2018-12-13T09:39:22.283Z,52.67
2018-12-13T09:41:53.573Z,56.53
2018-12-13T09:44:21.762Z,56.50
2018-12-13T09:46:49.922Z,57.60
2018-12-13T09:49:18.102Z,55.12
2018-12-13T09:51:49.897Z,52.80
2018-12-13T09:54:18.117Z,54.03
2018-12-13T09:56:46.288Z,54.43
2018-12-13T09:59:14.461Z,44.60
2018-12-13T10:01:45.822Z,51.23
2018-12-13T10:04:13.998Z,46.40
2018-12-13T10:06:42.157Z,43.23
2018-12-13T10:09:10.335Z,44.33
2018-12-13T10:11:42.302Z,49.63
2018-12-13T10:14:10.539Z,48.40
2018-12-13T10:16:38.724Z,48.03
2018-12-13T10:19:07.002Z,45.53
2018-12-13T10:21:38.930Z,53.87
2018-12-13T10:24:07.855Z,58.33
2018-12-13T10:26:37.091Z,53.17
2018-12-13T10:29:05.465Z,44.98
2018-12-13T10:31:37.283Z,48.45
2018-12-13T10:34:05.529Z,55.05
2018-12-13T10:36:33.705Z,48.45
2018-12-13T10:39:01.886Z,47.53
2018-12-13T10:41:33.565Z,47.58
2018-12-13T10:44:01.775Z,42.10
2018-12-13T10:46:29.938Z,47.93
2018-12-13T10:48:58.129Z,45.98
2018-12-13T10:51:30.024Z,38.33
2018-12-13T10:53:58.200Z,44.33
2018-12-13T10:56:26.373Z,42.98
2018-12-13T10:58:54.553Z,49.80
2018-12-13T11:01:45.017Z,73.30
2018-12-13T11:04:13.194Z,92.80
2018-12-13T11:06:41.418Z,54.85
2018-12-13T11:09:09.600Z,57.03
2018-12-13T11:11:41.653Z,46.37
2018-12-13T11:14:09.838Z,41.50
2018-12-13T11:16:38.048Z,40.30
2018-12-13T11:19:06.270Z,40.33
2018-12-13T11:21:37.687Z,37.38
2018-12-13T11:24:05.924Z,38.70
2018-12-13T11:26:34.092Z,38.02
2018-12-13T11:29:13.968Z,33.77
2018-12-13T11:34:19.718Z,32.73
2018-12-13T11:36:47.911Z,34.38
2018-12-13T11:39:16.126Z,31.33
2018-12-13T11:41:50.513Z,34.08
2018-12-13T11:44:18.856Z,28.93
2018-12-13T11:46:47.048Z,28.70
2018-12-13T11:49:15.257Z,29.53
2018-12-13T11:51:46.934Z,30.88
2018-12-13T11:54:19.609Z,29.03
2018-12-13T11:56:49.133Z,27.53
2018-12-13T11:59:17.320Z,27.40
2018-12-13T12:01:48.491Z,29.45
2018-12-13T12:04:16.670Z,29.60
2018-12-13T12:06:44.827Z,31.67
2018-12-13T12:09:12.989Z,28.17
2018-12-13T12:11:44.045Z,32.13
2018-12-13T12:14:12.270Z,31.27
2018-12-13T12:16:40.434Z,30.40
2018-12-13T12:19:08.649Z,27.67
2018-12-13T12:21:40.421Z,32.23
2018-12-13T12:24:08.598Z,31.40
2018-12-13T12:26:36.753Z,28.73
2018-12-13T12:29:04.943Z,32.17
2018-12-13T12:31:39.598Z,24.53
2018-12-13T12:34:07.760Z,29.67
2018-12-13T12:36:35.935Z,29.53
2018-12-13T12:39:06.382Z,30.00
2018-12-13T12:41:38.081Z,27.47
2018-12-13T12:44:06.790Z,31.67
2018-12-13T12:46:34.946Z,31.20
2018-12-13T12:49:03.099Z,31.60
2018-12-13T12:51:34.453Z,29.97
2018-12-13T12:54:02.601Z,30.17
2018-12-13T12:56:30.793Z,28.90
2018-12-13T12:58:58.990Z,27.77
2018-12-13T13:01:30.762Z,30.43
2018-12-13T13:03:58.933Z,28.75
2018-12-13T13:06:27.115Z,30.43
2018-12-13T13:08:55.321Z,30.80
2018-12-13T13:11:26.950Z,25.35
2018-12-13T13:13:55.246Z,29.40
2018-12-13T13:16:23.466Z,47.67
2018-12-13T13:18:51.629Z,32.90
2018-12-13T13:21:23.515Z,29.85
2018-12-13T13:26:25.978Z,35.03
2018-12-13T13:28:54.142Z,29.30
2018-12-13T13:31:25.810Z,39.95
2018-12-13T13:33:53.974Z,33.10
2018-12-13T13:36:22.194Z,32.98
2018-12-13T13:38:50.422Z,30.08
2018-12-13T13:41:24.492Z,32.05
2018-12-13T13:43:52.687Z,29.43
2018-12-13T13:46:20.909Z,33.50
2018-12-13T13:48:49.066Z,29.82
2018-12-13T13:51:23.640Z,31.73
2018-12-13T13:53:51.798Z,30.80
2018-12-13T13:56:19.978Z,30.20
2018-12-13T13:59:00.858Z,26.53
2018-12-13T14:01:32.775Z,26.17
2018-12-13T14:04:00.937Z,29.90
2018-12-13T14:06:29.102Z,30.60
2018-12-13T14:08:57.358Z,25.53
2018-12-13T14:11:29.535Z,29.10
2018-12-13T14:13:57.691Z,29.90
2018-12-13T14:16:25.976Z,30.67
2018-12-13T14:18:54.215Z,28.40
2018-12-13T14:21:28.457Z,27.70
2018-12-13T14:23:56.639Z,27.97
2018-12-13T14:26:24.848Z,31.40
2018-12-13T14:28:52.996Z,28.80
2018-12-13T14:31:27.655Z,33.00
2018-12-13T14:33:55.817Z,27.93
2018-12-13T14:36:24.018Z,28.10
2018-12-13T14:38:52.492Z,31.20
2018-12-13T14:41:23.794Z,28.30
2018-12-13T14:43:51.969Z,32.20
2018-12-13T14:46:20.133Z,30.20
2018-12-13T14:48:48.377Z,32.20
2018-12-13T14:51:19.800Z,32.43
2018-12-13T14:53:47.984Z,29.50
2018-12-13T14:56:16.153Z,29.47
2018-12-13T14:58:44.378Z,30.35
2018-12-13T15:01:16.251Z,44.30
2018-12-13T15:03:44.429Z,39.27
2018-12-13T15:06:12.629Z,31.97
2018-12-13T15:08:40.822Z,31.25
2018-12-13T15:14:59.361Z,27.60
2018-12-13T15:17:27.579Z,39.13
2018-12-13T15:19:55.774Z,34.20
2018-12-13T15:22:23.976Z,34.10
2018-12-13T15:24:52.162Z,42.05
2018-12-13T15:27:20.354Z,44.95
2018-12-13T15:29:48.521Z,32.45
2018-12-13T15:32:16.725Z,26.45
2018-12-13T15:34:44.895Z,30.27
2018-12-13T15:37:13.087Z,29.75
2018-12-13T15:39:41.277Z,26.73
2018-12-13T15:42:09.493Z,29.98
2018-12-13T15:44:37.657Z,31.17
2018-12-13T15:47:05.832Z,28.85
2018-12-13T15:49:34.156Z,30.25
2018-12-13T15:52:02.338Z,27.25
2018-12-13T15:54:30.562Z,29.75
2018-12-13T15:56:58.766Z,29.25
2018-12-13T15:59:26.953Z,28.77
2018-12-13T16:02:08.259Z,29.37
2018-12-13T16:04:36.446Z,28.67
2018-12-13T16:07:04.672Z,27.50
2018-12-13T16:09:32.860Z,26.87
2018-12-13T16:12:01.061Z,27.00
2018-12-13T16:14:29.265Z,31.12
2018-12-13T16:16:57.633Z,29.80
2018-12-13T16:19:25.998Z,32.30
2018-12-13T16:22:10.642Z,24.98
2018-12-13T16:24:38.833Z,26.25
2018-12-13T16:27:07.060Z,25.23
2018-12-13T16:29:35.244Z,23.87
2018-12-13T16:32:06.377Z,23.35
2018-12-13T16:34:34.593Z,26.33
2018-12-13T16:37:02.765Z,23.93
2018-12-13T16:39:30.945Z,24.35
2018-12-13T16:42:00.582Z,22.20
2018-12-13T16:44:29.661Z,23.67
2018-12-13T16:46:57.914Z,25.70
2018-12-13T16:49:26.127Z,28.93
2018-12-13T16:51:54.294Z,24.72
2018-12-13T16:54:22.492Z,24.52
2018-12-13T16:56:50.678Z,24.02
2018-12-13T16:59:18.879Z,22.40
2018-12-13T17:01:48.414Z,25.40
2018-12-13T17:04:16.587Z,23.87
2018-12-13T17:06:44.789Z,23.20
2018-12-13T17:09:12.974Z,24.40
2018-12-13T17:11:53.602Z,20.62
2018-12-13T17:17:37.556Z,24.80
2018-12-13T17:20:19.594Z,27.13
2018-12-13T17:22:47.766Z,22.15
2018-12-13T17:25:15.980Z,23.52
2018-12-13T17:27:44.153Z,24.72
2018-12-13T17:30:28.664Z,23.70
2018-12-13T17:32:56.920Z,27.30
2018-12-13T17:35:25.114Z,26.48
2018-12-13T17:37:53.326Z,27.05
2018-12-13T17:40:24.796Z,25.13
2018-12-13T17:42:53.148Z,24.10
2018-12-13T17:45:21.357Z,26.77
2018-12-13T17:47:49.558Z,26.50
2018-12-13T17:50:24.065Z,26.37
2018-12-13T17:52:52.226Z,23.20
2018-12-13T17:55:20.447Z,28.97
2018-12-13T17:57:48.975Z,29.50
2018-12-13T18:00:18.321Z,25.00
2018-12-13T18:02:46.533Z,25.35
2018-12-13T18:05:14.761Z,27.05
2018-12-13T18:07:42.943Z,29.40
2018-12-13T18:13:14.418Z,27.57
2018-12-13T18:15:42.593Z,28.07
2018-12-13T18:18:10.775Z,29.17
2018-12-13T18:20:51.838Z,30.23
2018-12-13T18:23:20.557Z,25.92
2018-12-13T18:25:48.743Z,28.10
2018-12-13T18:28:16.920Z,30.77
2018-12-13T18:30:46.517Z,26.33
2018-12-13T18:33:14.690Z,28.12
2018-12-13T18:35:42.854Z,27.10
2018-12-13T18:38:11.026Z,26.65
2018-12-13T18:40:52.122Z,26.63
2018-12-13T18:43:20.389Z,29.47
2018-12-13T18:45:48.580Z,25.50
2018-12-13T18:48:16.736Z,29.43
2018-12-13T18:50:57.864Z,29.03
2018-12-13T18:53:26.071Z,27.43
2018-12-13T18:55:54.241Z,33.67
2018-12-13T18:58:22.425Z,31.48
2018-12-13T19:03:47.594Z,34.15
2018-12-13T19:06:15.750Z,27.97
2018-12-13T19:08:43.909Z,31.48
2018-12-13T19:11:26.508Z,33.00
2018-12-13T19:13:54.689Z,33.10
2018-12-13T19:16:22.909Z,32.13
2018-12-13T19:18:51.092Z,34.15
2018-12-13T19:21:33.791Z,36.60
2018-12-13T19:24:01.956Z,34.75
2018-12-13T19:26:30.139Z,33.40
2018-12-13T19:28:58.293Z,35.10
2018-12-13T19:31:30.031Z,37.40
2018-12-13T19:33:59.420Z,37.30
2018-12-13T19:36:27.622Z,33.15
2018-12-13T19:38:55.855Z,35.08
2018-12-13T19:41:37.707Z,35.43
2018-12-13T19:44:05.915Z,33.48
2018-12-13T19:46:34.104Z,38.25
2018-12-13T19:49:14.881Z,39.92
2018-12-13T19:54:41.653Z,37.97
2018-12-13T19:57:09.892Z,35.33
2018-12-13T20:02:35.818Z,36.15
2018-12-13T20:05:04.968Z,36.38
2018-12-13T20:07:33.266Z,40.52
2018-12-13T20:10:01.444Z,36.45
2018-12-13T20:12:29.638Z,38.15
2018-12-13T20:14:57.806Z,39.67
2018-12-13T20:17:26.011Z,36.70
2018-12-13T20:19:54.324Z,36.03
2018-12-13T20:22:22.517Z,38.73
2018-12-13T20:24:50.692Z,36.63
2018-12-13T20:27:19.018Z,33.63
2018-12-13T20:29:47.250Z,34.75
2018-12-13T20:32:15.741Z,35.08
2018-12-13T20:34:57.309Z,33.83
2018-12-13T20:37:38.555Z,37.85
2018-12-13T20:40:10.264Z,38.80
2018-12-13T20:42:38.536Z,35.20
2018-12-13T20:45:07.313Z,35.30
2018-12-13T20:47:35.513Z,37.30
2018-12-13T20:50:04.601Z,36.40
2018-12-13T20:52:32.849Z,37.95
2018-12-13T20:55:01.053Z,34.03
2018-12-13T20:57:29.433Z,39.30
2018-12-13T20:59:57.597Z,33.42
2018-12-13T21:02:25.766Z,34.13
2018-12-13T21:04:53.969Z,31.25
2018-12-13T21:07:27.762Z,35.15
2018-12-13T21:09:56.187Z,33.10
2018-12-13T21:12:24.393Z,32.42
2018-12-13T21:14:52.558Z,31.23
2018-12-13T21:17:20.749Z,28.62
2018-12-13T21:19:48.916Z,32.83
2018-12-13T21:22:17.104Z,30.92
2018-12-13T21:24:45.275Z,30.35
2018-12-13T21:27:13.478Z,29.05
2018-12-13T21:29:41.666Z,34.67
2018-12-13T21:32:09.872Z,30.12
2018-12-13T21:34:38.066Z,31.07
2018-12-13T21:37:06.290Z,30.15
2018-12-13T21:39:34.505Z,27.48
2018-12-13T21:42:08.998Z,28.07
2018-12-13T21:44:37.153Z,30.10
2018-12-13T21:47:05.329Z,24.43
2018-12-13T21:49:33.500Z,27.60
2018-12-13T21:52:05.181Z,28.05
2018-12-13T21:54:33.379Z,27.65
2018-12-13T21:57:01.809Z,29.52
2018-12-13T21:59:29.985Z,28.85
2018-12-13T22:02:01.994Z,28.52
2018-12-13T22:04:30.394Z,30.80
2018-12-13T22:06:58.711Z,29.63
2018-12-13T22:09:26.879Z,28.12
2018-12-13T22:11:58.898Z,30.23
2018-12-13T22:14:27.128Z,33.98
2018-12-13T22:16:56.315Z,31.37
2018-12-13T22:19:24.614Z,28.98
2018-12-13T22:21:55.846Z,27.10
2018-12-13T22:24:24.101Z,30.55
2018-12-13T22:26:52.406Z,29.70
2018-12-13T22:29:20.636Z,28.15
2018-12-13T22:31:55.557Z,30.17
2018-12-13T22:34:24.093Z,26.93
2018-12-13T22:36:52.390Z,30.60
2018-12-13T22:39:20.635Z,26.93
2018-12-13T22:41:52.082Z,28.75
2018-12-13T22:44:20.287Z,30.77
2018-12-13T22:46:48.512Z,30.23
2018-12-13T22:49:16.708Z,27.20
2018-12-13T22:51:47.962Z,30.88
2018-12-13T22:54:16.177Z,30.62
2018-12-13T22:56:44.372Z,25.43
2018-12-13T22:59:12.692Z,29.23
2018-12-13T23:01:44.167Z,27.87
2018-12-13T23:04:12.379Z,28.32
2018-12-13T23:06:40.585Z,26.80
2018-12-13T23:09:08.856Z,26.62
2018-12-13T23:11:43.251Z,29.03
2018-12-13T23:14:11.513Z,30.00
2018-12-13T23:16:40.280Z,26.95
2018-12-13T23:19:08.484Z,27.83
2018-12-13T23:21:39.745Z,31.37
2018-12-13T23:24:08.523Z,31.33
2018-12-13T23:26:36.750Z,25.80
2018-12-13T23:29:04.962Z,31.30
2018-12-13T23:31:40.294Z,30.92
2018-12-13T23:34:08.670Z,30.85
2018-12-13T23:36:36.889Z,30.70
2018-12-13T23:39:05.300Z,29.00
2018-12-13T23:41:39.313Z,29.95
2018-12-13T23:44:07.034Z,26.57
2018-12-13T23:46:35.275Z,28.55
2018-12-13T23:49:03.488Z,33.08
2018-12-13T23:51:37.928Z,30.88
2018-12-13T23:54:06.178Z,28.32
2018-12-13T23:56:34.364Z,34.08
2018-12-13T23:59:02.574Z,30.25
